sensor_id;sensor_type;location;lat;lon;timestamp;P1;durP1;ratioP1;P2;durP2;ratioP2
74309;SDS011;62722;51.142;17.052;2022-10-16T00:00:01;16.27;;;8.73;;
74309;SDS011;62722;51.142;17.052;2022-10-16T00:02:51;16.67;;;8.45;;
74309;SDS011;62722;51.142;17.052;2022-10-16T00:05:18;15.05;;;8.20;;
74309;SDS011;62722;51.142;17.052;2022-10-16T00:07:45;14.88;;;8.55;;
74309;SDS011;62722;51.142;17.052;2022-10-16T00:10:12;15.32;;;8.27;;
74309;SDS011;62722;51.142;17.052;2022-10-16T00:12:39;14.25;;;7.93;;
74309;SDS011;62722;51.142;17.052;2022-10-16T00:15:07;11.88;;;7.28;;
74309;SDS011;62722;51.142;17.052;2022-10-16T00:17:34;14.05;;;7.97;;
74309;SDS011;62722;51.142;17.052;2022-10-16T00:20:03;11.77;;;7.20;;
74309;SDS011;62722;51.142;17.052;2022-10-16T00:22:32;13.05;;;7.78;;
74309;SDS011;62722;51.142;17.052;2022-10-16T00:24:59;13.90;;;7.57;;
74309;SDS011;62722;51.142;17.052;2022-10-16T00:27:26;11.95;;;7.40;;
74309;SDS011;62722;51.142;17.052;2022-10-16T00:29:53;11.38;;;7.20;;
74309;SDS011;62722;51.142;17.052;2022-10-16T00:32:21;14.07;;;7.53;;
74309;SDS011;62722;51.142;17.052;2022-10-16T00:34:48;13.30;;;7.35;;
74309;SDS011;62722;51.142;17.052;2022-10-16T00:37:16;13.45;;;8.10;;
74309;SDS011;62722;51.142;17.052;2022-10-16T00:39:44;13.10;;;7.43;;
74309;SDS011;62722;51.142;17.052;2022-10-16T00:42:12;12.30;;;7.53;;
74309;SDS011;62722;51.142;17.052;2022-10-16T00:44:43;12.77;;;7.20;;
74309;SDS011;62722;51.142;17.052;2022-10-16T00:49:44;10.52;;;6.38;;
74309;SDS011;62722;51.142;17.052;2022-10-16T00:52:13;13.40;;;6.88;;
74309;SDS011;62722;51.142;17.052;2022-10-16T00:54:42;10.40;;;5.93;;
74309;SDS011;62722;51.142;17.052;2022-10-16T00:57:10;10.48;;;6.28;;
74309;SDS011;62722;51.142;17.052;2022-10-16T00:59:38;11.38;;;6.50;;
74309;SDS011;62722;51.142;17.052;2022-10-16T01:02:08;10.48;;;6.47;;
74309;SDS011;62722;51.142;17.052;2022-10-16T01:04:38;11.05;;;6.28;;
74309;SDS011;62722;51.142;17.052;2022-10-16T01:07:10;9.38;;;5.97;;
74309;SDS011;62722;51.142;17.052;2022-10-16T01:09:47;9.02;;;5.30;;
74309;SDS011;62722;51.142;17.052;2022-10-16T01:12:27;10.90;;;5.95;;
74309;SDS011;62722;51.142;17.052;2022-10-16T01:15:02;10.93;;;6.03;;
74309;SDS011;62722;51.142;17.052;2022-10-16T01:20:10;8.32;;;4.95;;
74309;SDS011;62722;51.142;17.052;2022-10-16T01:22:45;8.02;;;4.95;;
74309;SDS011;62722;51.142;17.052;2022-10-16T01:25:25;8.23;;;5.03;;
74309;SDS011;62722;51.142;17.052;2022-10-16T01:28:04;9.25;;;5.72;;
74309;SDS011;62722;51.142;17.052;2022-10-16T01:30:35;6.85;;;4.50;;
74309;SDS011;62722;51.142;17.052;2022-10-16T01:33:05;8.45;;;5.43;;
74309;SDS011;62722;51.142;17.052;2022-10-16T01:35:41;8.65;;;5.10;;
74309;SDS011;62722;51.142;17.052;2022-10-16T01:38:15;10.82;;;5.47;;
74309;SDS011;62722;51.142;17.052;2022-10-16T01:40:47;9.57;;;5.57;;
74309;SDS011;62722;51.142;17.052;2022-10-16T01:48:17;8.25;;;4.53;;
74309;SDS011;62722;51.142;17.052;2022-10-16T01:50:49;9.82;;;5.10;;
74309;SDS011;62722;51.142;17.052;2022-10-16T01:53:21;9.10;;;4.75;;
74309;SDS011;62722;51.142;17.052;2022-10-16T01:55:50;8.20;;;5.32;;
74309;SDS011;62722;51.142;17.052;2022-10-16T01:58:22;8.98;;;5.15;;
74309;SDS011;62722;51.142;17.052;2022-10-16T02:00:51;8.85;;;5.32;;
74309;SDS011;62722;51.142;17.052;2022-10-16T02:03:21;8.65;;;5.00;;
74309;SDS011;62722;51.142;17.052;2022-10-16T02:05:49;10.05;;;5.53;;
74309;SDS011;62722;51.142;17.052;2022-10-16T02:08:19;8.45;;;5.43;;
74309;SDS011;62722;51.142;17.052;2022-10-16T02:10:47;9.68;;;5.63;;
74309;SDS011;62722;51.142;17.052;2022-10-16T02:13:16;9.80;;;5.30;;
74309;SDS011;62722;51.142;17.052;2022-10-16T02:15:49;9.20;;;5.82;;
74309;SDS011;62722;51.142;17.052;2022-10-16T02:18:16;9.45;;;5.57;;
74309;SDS011;62722;51.142;17.052;2022-10-16T02:20:45;8.88;;;5.60;;
74309;SDS011;62722;51.142;17.052;2022-10-16T02:23:20;10.63;;;6.07;;
74309;SDS011;62722;51.142;17.052;2022-10-16T02:25:51;9.13;;;5.05;;
74309;SDS011;62722;51.142;17.052;2022-10-16T02:28:22;9.45;;;5.50;;
74309;SDS011;62722;51.142;17.052;2022-10-16T02:30:56;10.95;;;5.90;;
74309;SDS011;62722;51.142;17.052;2022-10-16T02:33:26;9.88;;;5.90;;
74309;SDS011;62722;51.142;17.052;2022-10-16T02:35:55;9.27;;;5.28;;
74309;SDS011;62722;51.142;17.052;2022-10-16T02:38:24;8.52;;;5.72;;
74309;SDS011;62722;51.142;17.052;2022-10-16T02:40:52;10.10;;;5.80;;
74309;SDS011;62722;51.142;17.052;2022-10-16T02:43:19;22.30;;;11.52;;
74309;SDS011;62722;51.142;17.052;2022-10-16T02:45:46;13.73;;;8.23;;
74309;SDS011;62722;51.142;17.052;2022-10-16T02:48:15;12.07;;;7.05;;
74309;SDS011;62722;51.142;17.052;2022-10-16T02:50:42;10.30;;;6.55;;
74309;SDS011;62722;51.142;17.052;2022-10-16T02:53:09;9.38;;;6.43;;
74309;SDS011;62722;51.142;17.052;2022-10-16T02:55:36;10.60;;;6.63;;
74309;SDS011;62722;51.142;17.052;2022-10-16T02:58:04;11.93;;;5.93;;
74309;SDS011;62722;51.142;17.052;2022-10-16T03:00:32;9.68;;;6.10;;
74309;SDS011;62722;51.142;17.052;2022-10-16T03:03:00;8.98;;;5.18;;
74309;SDS011;62722;51.142;17.052;2022-10-16T03:05:28;10.48;;;6.13;;
74309;SDS011;62722;51.142;17.052;2022-10-16T03:07:56;11.07;;;6.40;;
74309;SDS011;62722;51.142;17.052;2022-10-16T03:10:25;11.35;;;6.28;;
74309;SDS011;62722;51.142;17.052;2022-10-16T03:12:53;11.73;;;6.05;;
74309;SDS011;62722;51.142;17.052;2022-10-16T03:15:20;10.82;;;6.30;;
74309;SDS011;62722;51.142;17.052;2022-10-16T03:17:47;12.88;;;6.70;;
74309;SDS011;62722;51.142;17.052;2022-10-16T03:20:14;10.73;;;5.85;;
74309;SDS011;62722;51.142;17.052;2022-10-16T03:22:43;10.68;;;6.13;;
74309;SDS011;62722;51.142;17.052;2022-10-16T03:25:10;12.25;;;7.45;;
74309;SDS011;62722;51.142;17.052;2022-10-16T03:27:37;11.90;;;6.85;;
74309;SDS011;62722;51.142;17.052;2022-10-16T03:30:05;12.73;;;6.97;;
74309;SDS011;62722;51.142;17.052;2022-10-16T03:32:33;11.55;;;6.63;;
74309;SDS011;62722;51.142;17.052;2022-10-16T03:35:00;12.77;;;6.43;;
74309;SDS011;62722;51.142;17.052;2022-10-16T03:37:27;13.60;;;6.60;;
74309;SDS011;62722;51.142;17.052;2022-10-16T03:39:55;12.20;;;6.30;;
74309;SDS011;62722;51.142;17.052;2022-10-16T03:42:23;12.10;;;7.00;;
74309;SDS011;62722;51.142;17.052;2022-10-16T03:44:50;10.95;;;5.78;;
74309;SDS011;62722;51.142;17.052;2022-10-16T03:47:17;12.38;;;6.63;;
74309;SDS011;62722;51.142;17.052;2022-10-16T03:49:47;10.85;;;6.15;;
74309;SDS011;62722;51.142;17.052;2022-10-16T03:52:15;14.40;;;6.40;;
74309;SDS011;62722;51.142;17.052;2022-10-16T03:54:42;10.52;;;6.20;;
74309;SDS011;62722;51.142;17.052;2022-10-16T03:57:10;11.98;;;6.95;;
74309;SDS011;62722;51.142;17.052;2022-10-16T03:59:37;10.52;;;5.97;;
74309;SDS011;62722;51.142;17.052;2022-10-16T04:02:05;12.35;;;6.03;;
74309;SDS011;62722;51.142;17.052;2022-10-16T04:04:32;11.40;;;6.50;;
74309;SDS011;62722;51.142;17.052;2022-10-16T04:06:59;11.93;;;7.10;;
74309;SDS011;62722;51.142;17.052;2022-10-16T04:09:26;11.52;;;6.38;;
74309;SDS011;62722;51.142;17.052;2022-10-16T04:11:53;19.23;;;7.40;;
74309;SDS011;62722;51.142;17.052;2022-10-16T04:14:22;12.50;;;7.45;;
74309;SDS011;62722;51.142;17.052;2022-10-16T04:16:49;10.07;;;5.90;;
74309;SDS011;62722;51.142;17.052;2022-10-16T04:19:17;9.63;;;6.13;;
74309;SDS011;62722;51.142;17.052;2022-10-16T04:21:44;12.73;;;7.75;;
74309;SDS011;62722;51.142;17.052;2022-10-16T04:24:11;13.10;;;6.60;;
74309;SDS011;62722;51.142;17.052;2022-10-16T04:26:39;12.05;;;7.13;;
74309;SDS011;62722;51.142;17.052;2022-10-16T04:29:06;12.45;;;6.82;;
74309;SDS011;62722;51.142;17.052;2022-10-16T04:31:35;16.00;;;7.15;;
74309;SDS011;62722;51.142;17.052;2022-10-16T04:34:02;11.90;;;6.78;;
74309;SDS011;62722;51.142;17.052;2022-10-16T04:36:29;13.73;;;7.35;;
74309;SDS011;62722;51.142;17.052;2022-10-16T04:38:58;14.73;;;7.57;;
74309;SDS011;62722;51.142;17.052;2022-10-16T04:41:26;11.73;;;6.80;;
74309;SDS011;62722;51.142;17.052;2022-10-16T04:43:53;10.70;;;6.63;;
74309;SDS011;62722;51.142;17.052;2022-10-16T04:46:22;12.98;;;7.47;;
74309;SDS011;62722;51.142;17.052;2022-10-16T04:48:50;13.52;;;7.18;;
74309;SDS011;62722;51.142;17.052;2022-10-16T04:51:17;12.18;;;6.35;;
74309;SDS011;62722;51.142;17.052;2022-10-16T04:53:45;13.93;;;7.20;;
74309;SDS011;62722;51.142;17.052;2022-10-16T04:56:12;14.27;;;6.05;;
74309;SDS011;62722;51.142;17.052;2022-10-16T04:58:40;14.05;;;6.90;;
74309;SDS011;62722;51.142;17.052;2022-10-16T05:01:07;10.32;;;6.28;;
74309;SDS011;62722;51.142;17.052;2022-10-16T05:03:34;10.30;;;6.05;;
74309;SDS011;62722;51.142;17.052;2022-10-16T05:06:04;9.48;;;5.40;;
74309;SDS011;62722;51.142;17.052;2022-10-16T05:08:31;8.45;;;5.53;;
74309;SDS011;62722;51.142;17.052;2022-10-16T05:10:59;8.73;;;5.45;;
74309;SDS011;62722;51.142;17.052;2022-10-16T05:13:27;8.27;;;5.15;;
74309;SDS011;62722;51.142;17.052;2022-10-16T05:15:54;9.88;;;5.60;;
74309;SDS011;62722;51.142;17.052;2022-10-16T05:18:21;9.95;;;5.88;;
74309;SDS011;62722;51.142;17.052;2022-10-16T05:20:48;10.55;;;5.05;;
74309;SDS011;62722;51.142;17.052;2022-10-16T05:23:17;9.48;;;5.25;;
74309;SDS011;62722;51.142;17.052;2022-10-16T05:25:51;9.70;;;5.82;;
74309;SDS011;62722;51.142;17.052;2022-10-16T05:28:19;8.35;;;5.40;;
74309;SDS011;62722;51.142;17.052;2022-10-16T05:30:46;10.52;;;6.15;;
74309;SDS011;62722;51.142;17.052;2022-10-16T05:33:13;10.30;;;6.13;;
74309;SDS011;62722;51.142;17.052;2022-10-16T05:35:41;10.07;;;6.72;;
74309;SDS011;62722;51.142;17.052;2022-10-16T05:38:09;10.65;;;5.68;;
74309;SDS011;62722;51.142;17.052;2022-10-16T05:40:37;9.23;;;5.78;;
74309;SDS011;62722;51.142;17.052;2022-10-16T05:43:05;11.15;;;5.82;;
74309;SDS011;62722;51.142;17.052;2022-10-16T05:45:32;8.88;;;5.43;;
74309;SDS011;62722;51.142;17.052;2022-10-16T05:47:59;11.50;;;6.22;;
74309;SDS011;62722;51.142;17.052;2022-10-16T05:50:27;9.85;;;6.18;;
74309;SDS011;62722;51.142;17.052;2022-10-16T05:52:54;9.18;;;5.47;;
74309;SDS011;62722;51.142;17.052;2022-10-16T05:55:21;8.70;;;5.57;;
74309;SDS011;62722;51.142;17.052;2022-10-16T05:57:49;9.75;;;6.10;;
74309;SDS011;62722;51.142;17.052;2022-10-16T06:00:17;10.27;;;5.43;;
74309;SDS011;62722;51.142;17.052;2022-10-16T06:02:44;11.93;;;5.93;;
74309;SDS011;62722;51.142;17.052;2022-10-16T06:05:11;10.95;;;5.60;;
74309;SDS011;62722;51.142;17.052;2022-10-16T06:07:38;8.32;;;5.85;;
74309;SDS011;62722;51.142;17.052;2022-10-16T06:10:06;10.50;;;5.90;;
74309;SDS011;62722;51.142;17.052;2022-10-16T06:12:35;8.88;;;5.60;;
74309;SDS011;62722;51.142;17.052;2022-10-16T06:15:05;9.93;;;5.45;;
74309;SDS011;62722;51.142;17.052;2022-10-16T06:17:33;9.60;;;6.10;;
74309;SDS011;62722;51.142;17.052;2022-10-16T06:20:00;9.18;;;5.30;;
74309;SDS011;62722;51.142;17.052;2022-10-16T06:22:27;11.82;;;6.00;;
74309;SDS011;62722;51.142;17.052;2022-10-16T06:24:54;9.18;;;6.07;;
74309;SDS011;62722;51.142;17.052;2022-10-16T06:27:21;9.63;;;5.40;;
74309;SDS011;62722;51.142;17.052;2022-10-16T06:29:49;8.15;;;5.15;;
74309;SDS011;62722;51.142;17.052;2022-10-16T06:32:18;9.73;;;5.38;;
74309;SDS011;62722;51.142;17.052;2022-10-16T06:34:47;10.63;;;5.13;;
74309;SDS011;62722;51.142;17.052;2022-10-16T06:37:14;8.80;;;5.35;;
74309;SDS011;62722;51.142;17.052;2022-10-16T06:39:41;12.55;;;6.10;;
74309;SDS011;62722;51.142;17.052;2022-10-16T06:42:08;10.65;;;6.53;;
74309;SDS011;62722;51.142;17.052;2022-10-16T06:44:35;14.60;;;8.13;;
74309;SDS011;62722;51.142;17.052;2022-10-16T06:47:02;11.73;;;6.53;;
74309;SDS011;62722;51.142;17.052;2022-10-16T06:49:31;10.13;;;6.22;;
74309;SDS011;62722;51.142;17.052;2022-10-16T06:51:59;11.25;;;6.25;;
74309;SDS011;62722;51.142;17.052;2022-10-16T06:54:27;8.82;;;5.45;;
74309;SDS011;62722;51.142;17.052;2022-10-16T06:56:55;9.27;;;5.80;;
74309;SDS011;62722;51.142;17.052;2022-10-16T06:59:22;10.35;;;5.80;;
74309;SDS011;62722;51.142;17.052;2022-10-16T07:01:49;9.80;;;5.60;;
74309;SDS011;62722;51.142;17.052;2022-10-16T07:04:16;9.25;;;5.18;;
74309;SDS011;62722;51.142;17.052;2022-10-16T07:06:45;9.48;;;5.97;;
74309;SDS011;62722;51.142;17.052;2022-10-16T07:09:12;8.82;;;5.65;;
74309;SDS011;62722;51.142;17.052;2022-10-16T07:11:40;8.45;;;5.13;;
74309;SDS011;62722;51.142;17.052;2022-10-16T07:14:12;10.02;;;5.93;;
74309;SDS011;62722;51.142;17.052;2022-10-16T07:16:42;9.85;;;5.75;;
74309;SDS011;62722;51.142;17.052;2022-10-16T07:19:09;9.77;;;6.10;;
74309;SDS011;62722;51.142;17.052;2022-10-16T07:21:38;9.05;;;5.85;;
74309;SDS011;62722;51.142;17.052;2022-10-16T07:24:12;9.98;;;6.07;;
74309;SDS011;62722;51.142;17.052;2022-10-16T07:26:41;10.90;;;6.22;;
74309;SDS011;62722;51.142;17.052;2022-10-16T07:29:11;11.52;;;5.85;;
74309;SDS011;62722;51.142;17.052;2022-10-16T07:31:40;9.80;;;5.70;;
74309;SDS011;62722;51.142;17.052;2022-10-16T07:34:07;9.52;;;5.38;;
74309;SDS011;62722;51.142;17.052;2022-10-16T07:36:34;8.15;;;4.80;;
74309;SDS011;62722;51.142;17.052;2022-10-16T07:39:02;9.57;;;5.38;;
74309;SDS011;62722;51.142;17.052;2022-10-16T07:41:30;11.15;;;5.63;;
74309;SDS011;62722;51.142;17.052;2022-10-16T07:44:02;9.35;;;5.82;;
74309;SDS011;62722;51.142;17.052;2022-10-16T07:46:29;9.75;;;5.40;;
74309;SDS011;62722;51.142;17.052;2022-10-16T07:48:58;8.48;;;5.47;;
74309;SDS011;62722;51.142;17.052;2022-10-16T07:51:25;8.02;;;4.97;;
74309;SDS011;62722;51.142;17.052;2022-10-16T07:53:53;9.38;;;5.20;;
74309;SDS011;62722;51.142;17.052;2022-10-16T07:56:20;9.25;;;4.60;;
74309;SDS011;62722;51.142;17.052;2022-10-16T07:58:49;8.50;;;4.80;;
74309;SDS011;62722;51.142;17.052;2022-10-16T08:01:17;8.15;;;4.68;;
74309;SDS011;62722;51.142;17.052;2022-10-16T08:03:46;7.53;;;4.88;;
74309;SDS011;62722;51.142;17.052;2022-10-16T08:06:14;8.52;;;4.60;;
74309;SDS011;62722;51.142;17.052;2022-10-16T08:08:42;6.85;;;4.18;;
74309;SDS011;62722;51.142;17.052;2022-10-16T08:11:09;7.93;;;4.40;;
74309;SDS011;62722;51.142;17.052;2022-10-16T08:13:37;6.88;;;4.22;;
74309;SDS011;62722;51.142;17.052;2022-10-16T08:16:06;7.78;;;4.68;;
74309;SDS011;62722;51.142;17.052;2022-10-16T08:18:35;7.25;;;4.20;;
74309;SDS011;62722;51.142;17.052;2022-10-16T08:21:02;8.82;;;4.13;;
74309;SDS011;62722;51.142;17.052;2022-10-16T08:23:31;7.90;;;3.90;;
74309;SDS011;62722;51.142;17.052;2022-10-16T08:26:02;6.18;;;3.85;;
74309;SDS011;62722;51.142;17.052;2022-10-16T08:28:30;6.13;;;3.53;;
74309;SDS011;62722;51.142;17.052;2022-10-16T08:31:05;5.63;;;3.65;;
74309;SDS011;62722;51.142;17.052;2022-10-16T08:33:37;6.43;;;4.18;;
74309;SDS011;62722;51.142;17.052;2022-10-16T08:36:04;6.35;;;3.97;;
74309;SDS011;62722;51.142;17.052;2022-10-16T08:38:32;7.60;;;4.20;;
74309;SDS011;62722;51.142;17.052;2022-10-16T08:41:02;6.38;;;4.13;;
74309;SDS011;62722;51.142;17.052;2022-10-16T08:46:43;5.68;;;3.67;;
74309;SDS011;62722;51.142;17.052;2022-10-16T08:49:19;6.20;;;4.13;;
74309;SDS011;62722;51.142;17.052;2022-10-16T08:51:46;5.97;;;4.03;;
74309;SDS011;62722;51.142;17.052;2022-10-16T08:54:19;7.45;;;4.00;;
74309;SDS011;62722;51.142;17.052;2022-10-16T08:56:54;5.53;;;3.55;;
74309;SDS011;62722;51.142;17.052;2022-10-16T08:59:22;6.18;;;3.65;;
74309;SDS011;62722;51.142;17.052;2022-10-16T09:01:50;6.28;;;3.78;;
74309;SDS011;62722;51.142;17.052;2022-10-16T09:04:26;6.40;;;3.90;;
74309;SDS011;62722;51.142;17.052;2022-10-16T09:07:15;6.13;;;3.55;;
74309;SDS011;62722;51.142;17.052;2022-10-16T09:09:53;6.57;;;4.30;;
74309;SDS011;62722;51.142;17.052;2022-10-16T09:12:31;5.32;;;3.53;;
74309;SDS011;62722;51.142;17.052;2022-10-16T09:15:10;6.90;;;4.15;;
74309;SDS011;62722;51.142;17.052;2022-10-16T09:17:47;5.80;;;3.53;;
74309;SDS011;62722;51.142;17.052;2022-10-16T09:20:23;5.93;;;3.72;;
74309;SDS011;62722;51.142;17.052;2022-10-16T09:23:01;6.68;;;3.83;;
74309;SDS011;62722;51.142;17.052;2022-10-16T09:25:39;7.32;;;3.75;;
74309;SDS011;62722;51.142;17.052;2022-10-16T09:28:09;5.45;;;3.50;;
74309;SDS011;62722;51.142;17.052;2022-10-16T09:30:37;5.55;;;3.45;;
74309;SDS011;62722;51.142;17.052;2022-10-16T09:33:06;5.97;;;3.50;;
74309;SDS011;62722;51.142;17.052;2022-10-16T09:35:36;5.47;;;3.53;;
74309;SDS011;62722;51.142;17.052;2022-10-16T09:38:05;4.72;;;3.20;;
74309;SDS011;62722;51.142;17.052;2022-10-16T09:40:34;6.15;;;3.17;;
74309;SDS011;62722;51.142;17.052;2022-10-16T09:43:09;5.45;;;3.70;;
74309;SDS011;62722;51.142;17.052;2022-10-16T09:45:53;6.07;;;3.90;;
74309;SDS011;62722;51.142;17.052;2022-10-16T09:48:22;5.45;;;3.72;;
74309;SDS011;62722;51.142;17.052;2022-10-16T09:50:58;5.63;;;3.67;;
74309;SDS011;62722;51.142;17.052;2022-10-16T09:53:37;4.68;;;3.22;;
74309;SDS011;62722;51.142;17.052;2022-10-16T09:56:06;4.68;;;3.20;;
74309;SDS011;62722;51.142;17.052;2022-10-16T09:58:41;5.28;;;3.40;;
74309;SDS011;62722;51.142;17.052;2022-10-16T10:01:12;5.90;;;3.30;;
74309;SDS011;62722;51.142;17.052;2022-10-16T10:03:43;4.90;;;3.17;;
74309;SDS011;62722;51.142;17.052;2022-10-16T10:08:55;6.57;;;3.70;;
74309;SDS011;62722;51.142;17.052;2022-10-16T10:11:40;4.10;;;3.10;;
74309;SDS011;62722;51.142;17.052;2022-10-16T10:14:14;5.32;;;3.58;;
74309;SDS011;62722;51.142;17.052;2022-10-16T10:16:48;4.55;;;3.20;;
74309;SDS011;62722;51.142;17.052;2022-10-16T10:19:18;4.50;;;3.10;;
74309;SDS011;62722;51.142;17.052;2022-10-16T10:21:48;4.05;;;2.92;;
74309;SDS011;62722;51.142;17.052;2022-10-16T10:24:17;4.50;;;3.20;;
74309;SDS011;62722;51.142;17.052;2022-10-16T10:26:48;4.82;;;3.38;;
74309;SDS011;62722;51.142;17.052;2022-10-16T10:29:28;5.03;;;3.20;;
74309;SDS011;62722;51.142;17.052;2022-10-16T10:32:08;4.03;;;2.95;;
74309;SDS011;62722;51.142;17.052;2022-10-16T10:34:49;4.35;;;3.00;;
74309;SDS011;62722;51.142;17.052;2022-10-16T10:40:05;3.92;;;2.78;;
74309;SDS011;62722;51.142;17.052;2022-10-16T10:42:43;5.13;;;3.00;;
74309;SDS011;62722;51.142;17.052;2022-10-16T10:45:17;3.80;;;3.10;;
74309;SDS011;62722;51.142;17.052;2022-10-16T10:47:54;7.03;;;3.05;;
74309;SDS011;62722;51.142;17.052;2022-10-16T10:50:33;5.13;;;3.00;;
74309;SDS011;62722;51.142;17.052;2022-10-16T10:53:09;4.00;;;3.00;;
74309;SDS011;62722;51.142;17.052;2022-10-16T10:55:48;4.68;;;3.00;;
74309;SDS011;62722;51.142;17.052;2022-10-16T11:01:16;5.45;;;2.85;;
74309;SDS011;62722;51.142;17.052;2022-10-16T11:03:56;3.42;;;2.28;;
74309;SDS011;62722;51.142;17.052;2022-10-16T11:09:06;4.03;;;2.15;;
74309;SDS011;62722;51.142;17.052;2022-10-16T11:11:40;3.97;;;2.20;;
74309;SDS011;62722;51.142;17.052;2022-10-16T11:14:13;4.15;;;2.45;;
74309;SDS011;62722;51.142;17.052;2022-10-16T11:16:45;4.00;;;2.45;;
74309;SDS011;62722;51.142;17.052;2022-10-16T11:19:22;3.80;;;2.40;;
74309;SDS011;62722;51.142;17.052;2022-10-16T11:22:01;3.42;;;2.10;;
74309;SDS011;62722;51.142;17.052;2022-10-16T11:24:35;3.97;;;2.60;;
74309;SDS011;62722;51.142;17.052;2022-10-16T11:27:09;3.63;;;2.42;;
74309;SDS011;62722;51.142;17.052;2022-10-16T11:29:45;4.00;;;2.55;;
74309;SDS011;62722;51.142;17.052;2022-10-16T11:32:19;3.80;;;2.55;;
74309;SDS011;62722;51.142;17.052;2022-10-16T11:34:51;3.85;;;2.47;;
74309;SDS011;62722;51.142;17.052;2022-10-16T11:37:25;4.60;;;2.65;;
74309;SDS011;62722;51.142;17.052;2022-10-16T11:39:58;4.88;;;2.50;;
74309;SDS011;62722;51.142;17.052;2022-10-16T11:42:37;4.47;;;2.65;;
74309;SDS011;62722;51.142;17.052;2022-10-16T11:45:13;3.55;;;2.50;;
74309;SDS011;62722;51.142;17.052;2022-10-16T11:47:51;4.88;;;2.40;;
74309;SDS011;62722;51.142;17.052;2022-10-16T11:53:01;3.40;;;2.28;;
74309;SDS011;62722;51.142;17.052;2022-10-16T11:55:36;3.42;;;2.33;;
74309;SDS011;62722;51.142;17.052;2022-10-16T11:58:05;3.25;;;2.03;;
74309;SDS011;62722;51.142;17.052;2022-10-16T12:00:40;3.40;;;1.85;;
74309;SDS011;62722;51.142;17.052;2022-10-16T12:03:15;3.65;;;2.35;;
74309;SDS011;62722;51.142;17.052;2022-10-16T12:05:52;4.85;;;2.20;;
74309;SDS011;62722;51.142;17.052;2022-10-16T12:08:34;3.65;;;2.47;;
74309;SDS011;62722;51.142;17.052;2022-10-16T12:11:09;4.03;;;2.78;;
74309;SDS011;62722;51.142;17.052;2022-10-16T12:13:49;4.68;;;2.80;;
74309;SDS011;62722;51.142;17.052;2022-10-16T12:16:21;3.95;;;2.65;;
74309;SDS011;62722;51.142;17.052;2022-10-16T12:18:49;3.50;;;2.50;;
74309;SDS011;62722;51.142;17.052;2022-10-16T12:21:36;4.45;;;2.60;;
74309;SDS011;62722;51.142;17.052;2022-10-16T12:24:05;4.50;;;2.60;;
74309;SDS011;62722;51.142;17.052;2022-10-16T12:26:34;4.75;;;3.03;;
74309;SDS011;62722;51.142;17.052;2022-10-16T12:29:13;4.93;;;2.72;;
74309;SDS011;62722;51.142;17.052;2022-10-16T12:31:48;3.97;;;2.63;;
74309;SDS011;62722;51.142;17.052;2022-10-16T12:34:20;3.95;;;2.75;;
74309;SDS011;62722;51.142;17.052;2022-10-16T12:36:51;4.20;;;3.13;;
74309;SDS011;62722;51.142;17.052;2022-10-16T12:39:21;5.03;;;3.30;;
74309;SDS011;62722;51.142;17.052;2022-10-16T12:42:00;4.50;;;3.08;;
74309;SDS011;62722;51.142;17.052;2022-10-16T12:44:31;4.68;;;3.03;;
74309;SDS011;62722;51.142;17.052;2022-10-16T12:46:59;4.40;;;3.20;;
74309;SDS011;62722;51.142;17.052;2022-10-16T12:49:31;5.35;;;3.22;;
74309;SDS011;62722;51.142;17.052;2022-10-16T12:52:04;4.18;;;3.17;;
74309;SDS011;62722;51.142;17.052;2022-10-16T12:54:37;5.90;;;3.42;;
74309;SDS011;62722;51.142;17.052;2022-10-16T12:57:10;4.82;;;3.40;;
74309;SDS011;62722;51.142;17.052;2022-10-16T12:59:57;5.38;;;3.42;;
74309;SDS011;62722;51.142;17.052;2022-10-16T13:02:48;5.13;;;3.38;;
74309;SDS011;62722;51.142;17.052;2022-10-16T13:05:30;5.50;;;3.67;;
74309;SDS011;62722;51.142;17.052;2022-10-16T13:08:27;5.63;;;3.75;;
74309;SDS011;62722;51.142;17.052;2022-10-16T13:11:08;5.88;;;4.20;;
74309;SDS011;62722;51.142;17.052;2022-10-16T13:13:47;6.65;;;4.35;;
74309;SDS011;62722;51.142;17.052;2022-10-16T13:16:35;8.13;;;4.72;;
74309;SDS011;62722;51.142;17.052;2022-10-16T13:19:15;8.18;;;4.20;;
74309;SDS011;62722;51.142;17.052;2022-10-16T13:21:51;5.43;;;3.92;;
74309;SDS011;62722;51.142;17.052;2022-10-16T13:24:34;8.15;;;4.60;;
74309;SDS011;62722;51.142;17.052;2022-10-16T13:27:14;6.88;;;3.78;;
74309;SDS011;62722;51.142;17.052;2022-10-16T13:29:52;6.55;;;4.05;;
74309;SDS011;62722;51.142;17.052;2022-10-16T13:32:25;6.55;;;3.80;;
74309;SDS011;62722;51.142;17.052;2022-10-16T13:34:53;8.50;;;4.22;;
74309;SDS011;62722;51.142;17.052;2022-10-16T13:37:21;6.57;;;4.25;;
74309;SDS011;62722;51.142;17.052;2022-10-16T13:39:50;5.65;;;3.80;;
74309;SDS011;62722;51.142;17.052;2022-10-16T13:42:21;6.10;;;4.00;;
74309;SDS011;62722;51.142;17.052;2022-10-16T13:44:51;6.00;;;4.00;;
74309;SDS011;62722;51.142;17.052;2022-10-16T13:47:20;6.53;;;4.00;;
74309;SDS011;62722;51.142;17.052;2022-10-16T13:49:58;5.82;;;4.10;;
74309;SDS011;62722;51.142;17.052;2022-10-16T13:52:26;11.00;;;4.63;;
74309;SDS011;62722;51.142;17.052;2022-10-16T13:54:53;5.97;;;4.30;;
74309;SDS011;62722;51.142;17.052;2022-10-16T13:57:24;7.35;;;3.95;;
74309;SDS011;62722;51.142;17.052;2022-10-16T13:59:52;6.45;;;3.92;;
74309;SDS011;62722;51.142;17.052;2022-10-16T14:02:21;5.30;;;3.65;;
74309;SDS011;62722;51.142;17.052;2022-10-16T14:04:52;5.15;;;3.83;;
74309;SDS011;62722;51.142;17.052;2022-10-16T14:07:23;5.43;;;3.55;;
74309;SDS011;62722;51.142;17.052;2022-10-16T14:09:52;5.90;;;3.60;;
74309;SDS011;62722;51.142;17.052;2022-10-16T14:12:20;6.78;;;4.03;;
74309;SDS011;62722;51.142;17.052;2022-10-16T14:14:51;6.13;;;4.22;;
74309;SDS011;62722;51.142;17.052;2022-10-16T14:17:21;5.60;;;4.05;;
74309;SDS011;62722;51.142;17.052;2022-10-16T14:19:52;6.63;;;4.13;;
74309;SDS011;62722;51.142;17.052;2022-10-16T14:22:26;6.55;;;3.88;;
74309;SDS011;62722;51.142;17.052;2022-10-16T14:24:57;7.07;;;4.30;;
74309;SDS011;62722;51.142;17.052;2022-10-16T14:27:26;5.85;;;3.67;;
74309;SDS011;62722;51.142;17.052;2022-10-16T14:30:13;7.38;;;4.50;;
74309;SDS011;62722;51.142;17.052;2022-10-16T14:32:52;5.63;;;4.30;;
74309;SDS011;62722;51.142;17.052;2022-10-16T14:35:22;5.82;;;3.83;;
74309;SDS011;62722;51.142;17.052;2022-10-16T14:37:51;6.10;;;4.28;;
74309;SDS011;62722;51.142;17.052;2022-10-16T14:40:19;4.53;;;3.65;;
74309;SDS011;62722;51.142;17.052;2022-10-16T14:42:49;5.80;;;3.92;;
74309;SDS011;62722;51.142;17.052;2022-10-16T14:45:20;5.75;;;3.78;;
74309;SDS011;62722;51.142;17.052;2022-10-16T14:47:50;5.88;;;4.07;;
74309;SDS011;62722;51.142;17.052;2022-10-16T14:50:21;5.55;;;3.83;;
74309;SDS011;62722;51.142;17.052;2022-10-16T14:52:48;5.28;;;3.88;;
74309;SDS011;62722;51.142;17.052;2022-10-16T14:55:16;8.15;;;4.13;;
74309;SDS011;62722;51.142;17.052;2022-10-16T14:57:43;6.82;;;4.28;;
74309;SDS011;62722;51.142;17.052;2022-10-16T15:00:15;6.72;;;4.47;;
74309;SDS011;62722;51.142;17.052;2022-10-16T15:02:45;6.28;;;4.38;;
74309;SDS011;62722;51.142;17.052;2022-10-16T15:05:16;5.45;;;3.80;;
74309;SDS011;62722;51.142;17.052;2022-10-16T15:07:44;8.32;;;4.35;;
74309;SDS011;62722;51.142;17.052;2022-10-16T15:10:12;5.40;;;4.03;;
74309;SDS011;62722;51.142;17.052;2022-10-16T15:12:40;7.40;;;4.10;;
74309;SDS011;62722;51.142;17.052;2022-10-16T15:15:15;5.53;;;4.03;;
74309;SDS011;62722;51.142;17.052;2022-10-16T15:18:00;5.95;;;3.88;;